Ringwood, NJ

5:24 PM EDT on September 02, 2014 (GMT -0400)
Skyline Lakes | Change Station
CLOSE
Current Station
Personal Weather Station
Location: Ringwood, NJ
Elevation: 305 ft
Nearby Weather Stations
Active Advisory: Air Quality Alert

Elev 305 ft 41.07 °N, 74.28 °W | Updated 12 seconds ago

Partly Cloudy
Partly Cloudy
90.0 °F
Feels Like 96 °F
N
8.1
Wind Variable Wind from North
Gusts 8.1 mph

Today
High -- | Low -- °F
--% Chance of Precip.
Yesterday
High -- | Low -- °F
Precip. -- in
6:24 AM 7:28 PM
First Quarter, 55% visible
Pressure 29.83 in
Visibility 10.0 miles
Clouds Clear
Heat Index 96 °F
Dew Point 71 °F
Humidity 54%
Rainfall 0.00 in
Snow Depth Not available.
UV 3 out of 12
Pollen 8.40 out of 12
Air Quality Not available.
Flu Activity Not available.
METAR KCDW 022053Z VRB06KT 10SM CLR 32/19 A2982 RMK AO2 SLP102 T03220189 56017

More Conditions Fewer Conditions

Pressure 29.83 in
Visibility 10.0 miles
Clouds Clear
Heat Index 96 °F
Dew Point 71 °F
Humidity 54%
Rainfall 0.00 in
Snow Depth Not available.
UV 3 out of 12
Pollen 8.40 out of 12
Air Quality Not available.
Flu Activity Not available.
METAR KCDW 022053Z VRB06KT 10SM CLR 32/19 A2982 RMK AO2 SLP102 T03220189 56017

More Conditions Fewer Conditions

10-Day Weather Forecast

Almanac

Astronomy

Sep. 02, 2014 Rise Set
Actual Time 6:24 AM EDT 7:28 PM EDT
Civil Twilight 5:56 AM EDT 7:56 PM EDT
Nautical Twilight 5:22 AM EDT 8:29 PM EDT
Astronomical Twilight 4:47 AM EDT 9:04 PM EDT
Moon 2:10 PM EDT No Moon Set
Length of Visible Light 13h 59m
Length of Day
13h 03m
Tomorrow will be 2m 37s shorter.
First Quarter, 55% of the Moon is Illuminated
Today
First Quarter
Sep 8
Full
Sep 15
Last Quarter
Sep 24
New
Oct 1
First Quarter

Today's Extremes

State Highs State Lows

Community

WunderPhotos

Upload Photos

1,749,769 photos uploaded!

Nearby

Snow Depth

Station Depth Elevation
No new snow has been reported.

Earthquake Activity

City Distance Mag. Time & Date
No recent earthquake activity has been reported nearby.
Minimum magnitude displayed is 2.5.

Coastal Water Temperatures

Place Temperature
Bridgeport, CT 75.9 °F

Nearby Weather Stations